the time You need

Fratta Terme MTB

Bertinoro, Forlì-Cesena   Italy

domenica 20 marzo 2016

Percorsi

LUNGO - 27.0 Km

 

CORTO - 15.0 Km

Servizi

ADSCOSTPunti KS Ranking

Chip

Circuiti

Gessi & Calanchi BikeMare e CollineRomagna Bike Cup

Ente

UISP

CLASSIFICA

LUNGO - 27.0 Km

Pos Atleta Sesso Cat PosC Team Tempo Media RTime
Sq. PARA MASSIMO M M5 - COMERO BIKE 01:03:43.50 25,43 01:03:07.30
Sq. BALDI CLAUDIO M M7 - INDIVIDUALE 00:33:38.84 48,17 00:32:53.44
Sq. PERCUSSI MICHELE M M7 - ADSCOST 00:33:39.33 48,14 00:32:54.54
Sq. BORDONI PIETRO M M5 - ASD POLISPORTIVA SAMMAURESE NOB 01:41:52.15 15,90 01:41:08.08
1 BUCCI EMANUELE M M1 1 SS FRECCE ROSSE 01:05:40.14 24,67 01:05:35.35
2 ZAMA LORENZO M M1 2 TEAM PASSION FAENTINA 01:06:44.53 24,28 01:06:41.41
3 FONTANELLI MATTEO M ELMT 1 TEAM PASSION FAENTINA 01:06:46.56 24,26 01:06:46.56
4 BRAVACCINI MATTEO M M1 3 COMERO BIKE 01:06:50.01 24,24 01:06:46.46
5 FIRMIANI MARCO M M2 1 ASD SAMBI TEAM 01:06:57.73 24,20 01:06:57.73
6 URBINATI LUCA M M1 4 TEAM MONDOBICI TECNOPLAST 01:07:38.56 23,95 01:07:32.32
7 BOVINO MARIO M M4 1 KTM FORTI E LIBERI 01:07:47.90 23,90 01:07:47.90
8 CAPPELLI ALEX M ELMT 2 GRUPPO TNT 01:07:57.67 23,84 01:07:51.27
9 FABBRI CHRISTIAN M M3 1 TEAM PASSION FAENTINA 01:08:07.40 23,78 01:08:07.40
10 GARELLI DAVIDE M M2 2 ASD POLISPORTIVA SAMMAURESE NOB 01:08:23.17 23,69 01:08:12.17
11 CAPECE MATTIA M M1 5 KTM FORTI E LIBERI 01:08:58.59 23,49 01:08:41.41
12 RAFFAELLI SAMUELE M M2 3 TEAM MONDOBICI TECNOPLAST 01:09:07.33 23,44 01:09:00.00
13 DE LORENZI ENRICO M M1 6 KTM FORTI E LIBERI 01:09:11.17 23,42 01:09:07.07
14 BARBERINI ALESSANDRO M ELMT 3 TEAM NOB JOLLYWEAR 01:09:12.81 23,41 01:09:05.61
15 RUFFILLI PAOLO M M2 4 SPACCO ASD 01:09:22.92 23,35 01:09:18.72
16 VALENTINI STEFANO M M2 5 180 BPM 01:09:27.23 23,33 01:09:18.18
17 MALUSARDI DANIELE M ELMT 4 ASD GREEN DEVILS 01:09:48.92 23,21 01:09:13.02
18 GHISELLI MICHELE M M2 6 A.S.D. I MUFLONI RACING TEAM 01:09:57.70 23,16 01:09:36.30
19 ACCORDI LUCA M ELMT 5 OSTERIA BIKE ASD 01:09:59.53 23,15 01:09:25.13
20 MAZZONI AGOSTINO M M1 7 180 BPM 01:10:01.92 23,14 01:09:55.22
21 GHERARDI ALESSANDRO M ELMT 6 SALINBICI BIKE TEAM RUOTE 01:10:05.92 23,12 01:10:02.22
22 RENZI NICOLA M M3 2 PROBIKERS 01:10:09.08 23,09 01:10:02.02
23 MANIGRASSO GIOVANNI M M4 2 ASD ONLYOFF DUE RUOTE 01:10:12.73 23,08 01:10:09.03
24 CHIARINI LUCA M M2 7 TEAM PASSION FAENTINA 01:10:17.00 23,05 01:09:54.54
25 PELLEGRINO PARIDE M M4 3 TEAM TORPEDO BIKE 01:10:19.17 23,04 01:10:10.10
26 GARATTONI MATTEO M M4 4 TEAM NOB JOLLYWEAR 01:10:19.18 23,04 01:10:00.00
27 NICOLINI MARCO M M1 8 TEAM ESSERE E MTBICIO 01:10:24.84 23,01 01:10:16.34
28 MONTALTI FABRIZIO M M3 3 TEAM ESSERE E MTBICIO 01:10:25.93 23,01 01:10:19.03
29 PARINI CARLO M M3 4 VITAMINA TEAM 01:10:27.93 23,00 01:10:18.73
30 BUZZI DIEGO M M2 8 CARRARO TEAM TRENTINO - ALE´ 01:11:18.43 22,72 01:10:56.23
31 MAZZONI ALESSANDRO M M1 9 180 BPM 01:11:28.68 22,67 01:11:20.28
32 BIANCHI LUCA M 2S 1 ASD TEAM BIKE VALCONCA 01:11:29.18 22,66 01:11:04.04
33 FOSCHI CRISTIAN M M3 5 BARACCA LUGO CORSA MTB 01:11:39.06 22,61 01:11:35.35
34 TINI STEFANO M M2 9 VC DEL GARDA 01:11:50.64 22,55 01:11:37.24
35 FIORINI FABIO M M5 1 KTM FORTI E LIBERI 01:11:54.90 22,53 01:11:51.00
36 GUIDI MIRCO M M3 6 SAN MARINO RACE TEAM 01:12:11.56 22,44 01:11:46.46
37 FABBRI CLAUDIO M M1 10 TEAM PASSION FAENTINA 01:12:12.93 22,44 01:11:53.73
38 STAVOLA LUCA M M1 11 ASD POLISPORTIVA SAMMAURESE NOB 01:12:15.25 22,42 01:11:58.05
39 RICEPUTI LUCA M M2 10 TEAM ESSERE E MTBICIO 01:12:17.43 22,41 01:12:12.03
40 RIPA STEFANO M M2 11 TEAM MONDOBICI TECNOPLAST 01:12:21.68 22,39 01:11:59.48
41 REGGIANINI CLAUDIO M M2 12 VERNIABIKE ASD 01:12:22.93 22,39 01:12:18.23
42 GRAZIANI ALESSANDRO M ELMT 7 VERNIABIKE ASD 01:12:23.39 22,38 01:12:14.14
43 ALPI DEVIS M M2 13 MARRADI BIKE 01:12:25.17 22,37 01:12:01.01
44 GIOVANNINI FABIO M M4 5 SAN MARINO RACE TEAM 01:12:28.18 22,36 01:12:07.07
45 LEONI GERMANO M M5 2 TEAM PASSION FAENTINA 01:12:28.40 22,36 01:12:28.40
46 NERI TOMMASO M JUN 1 TEAM K-ONE ASD 01:12:38.78 22,30 01:12:32.58
47 FERRIOLI DEVIS M M2 14 TEAM PASSION FAENTINA 01:12:50.36 22,24 01:12:28.28
48 ASTOLFI OMAR M M3 7 ASD H3O RACE TEAM 01:13:19.18 22,10 01:13:11.11
49 FABBRI SIMONE M M2 15 AS TARTANA BIKE 01:13:26.11 22,06 01:13:15.15
50 PASINI GIOVANNI M M3 8 KTM FORTI E LIBERI 01:13:35.86 22,02 01:13:35.86
51 GUGLIELMI THOMAS M M2 16 SPACCO ASD 01:13:37.89 22,01 01:13:27.49
52 RAGGINI ROBERTO M M5 3 SCORPION BIKE MTB 01:13:40.12 21,99 01:13:09.09
53 FABBRI DAVIDE M M3 9 ASD H3O RACE TEAM 01:13:55.56 21,92 01:13:46.36
54 DIONISI FELICE M M3 10 ASD ONLYOFF DUE RUOTE 01:14:03.28 21,88 01:13:48.08
55 GALLI MARIANO M M3 11 ASD POLISPORTIVA SAMMAURESE NOB 01:14:03.70 21,88 01:13:41.50
56 BONFINI ROBERTO M M4 6 SAN MARINO RACE TEAM 01:14:05.11 21,87 01:13:47.47
57 PRETOLANI TIBERIO M M5 4 ASD IMOLA BIKE 01:14:12.42 21,83 01:13:56.56
58 ROSSI ANDREA M M4 7 BARACCA LUGO CORSA MTB 01:14:14.67 21,82 01:14:09.09
59 TAGLIANI MATTEO M M1 12 TEAM BORGHI RACING 01:14:16.68 21,81 01:14:03.03
60 CAVICCHI CRISTIAN M M3 12 POL. YOUNG LINE 01:14:17.43 21,81 01:13:57.23
61 PRUNI PAOLO M M4 8 KTM FORTI E LIBERI 01:14:19.70 21,80 01:14:10.30
62 SALVATORI STEFANO M M6 1 KTM FORTI E LIBERI 01:14:19.86 21,80 01:14:19.86
63 MARTINI GIAN CARLO M M3 13 BARACCA LUGO CORSA MTB 01:14:21.95 21,79 01:14:05.75
64 ZANETTI GIANNI M M2 17 TEAM ZANETTI ASD 01:14:23.39 21,78 01:14:23.39
65 BELLINI IVAN M M4 9 ASD BIKE INNOVATION SQUADRA CORSE 01:14:25.83 21,77 01:14:11.13
66 FARINA JURI M M4 10 ASD IMOLA BIKE 01:14:26.28 21,76 01:14:21.21
67 PALANCA GIANLUCA M M4 11 SPACCO ASD 01:14:27.95 21,76 01:14:08.25
68 GUGLIELMI MATTEO M M3 14 TEAM BIKE COCIF.COM ASD 01:14:29.68 21,75 01:13:57.28
69 BUSSI SIMONE M M2 18 VENTURI ADVENTURE TEAM 01:14:30.45 21,74 01:13:51.25
70 SAVINO CARMINE M M5 5 TEAM PASSION FAENTINA 01:14:49.18 21,65 01:14:33.33
71 CEREDI DANIELE M M2 19 TEAM ESSERE E MTBICIO 01:15:14.95 21,53 01:14:42.25
72 COLLINI FRANCESCO M M1 13 GS BULGARNO´ BIKE 2008 01:15:17.20 21,52 01:14:22.00
73 MAMBELLI MARINO M M6 2 ASD TEAM COMACO 01:15:41.95 21,40 01:15:21.55
74 AMARANTI FEDERICO M ELMT 8 ASD LEONARDI RACING TEAM 01:15:53.95 21,35 01:15:05.05
75 MONTANARI MAURO M 2S 2 TEAM PASSION FAENTINA 01:15:54.95 21,34 01:15:36.55
76 RAGGI FABIO M M2 20 GOOD BIKE AS RONCOFREDDESE 01:16:00.45 21,32 01:16:00.45
77 FANTINI MASSIMILIANO M M4 12 TEAM K-ONE ASD 01:16:14.11 21,25 01:16:04.04
78 MALAVOLTA MANUEL M M1 14 BARACCA LUGO CORSA MTB 01:16:14.90 21,25 01:15:57.00
79 CASTROGIOVANNI ANDREA M M1 15 CICLI NERI TEAM 01:16:16.12 21,24 01:16:01.01
80 BALDAZZI ANDREA M 2S 3 ASD BIKE INNOVATION SQUADRA CORSE 01:16:17.95 21,24 01:16:01.05
81 CICOGNANI FABRIZIO M M1 16 180 BPM 01:16:23.95 21,21 01:16:13.05
82 MAMBELLI MARCO M 2S 4 ASD OTW RAVENNA 01:16:25.67 21,20 01:16:10.47
83 BABINI GIOVANNI M M6 3 SC VELOCIRAPTOR 01:16:25.67 21,20 01:16:20.47
84 IAMMARINO GIANLUCA M M3 15 TEAM ESSERE E MTBICIO 01:16:28.51 21,19 01:16:21.21
85 GIANCECCHI ANDREA M M2 21 SAN MARINO RACE TEAM 01:16:38.06 21,14 01:16:06.06
86 CATTI IVAN M M2 22 BICI PER TUTTI ASD 01:16:40.20 21,13 01:16:10.10
87 ALTINI ANDREA M 2S 5 KTM FORTI E LIBERI 01:16:42.33 21,12 01:16:01.13
88 BATTELLI SIMONE M 2S 6 ASD TEAM BIKE VALCONCA 01:16:43.20 21,12 01:16:28.28
89 CONFICONI SAMUELE M M3 16 KTM FORTI E LIBERI 01:16:43.37 21,12 01:16:18.17
90 DALLAGLIO CLAUDIO M M4 13 TEAM FARMAENERGY FRW MONTANINI 01:16:43.61 21,12 01:16:32.21
91 MICHELINI ENZO M M5 6 BICI PER TUTTI ASD 01:16:54.11 21,07 01:16:29.29
92 MAGALOTTI DAVIDE M 2S 7 SPACCO ASD 01:16:55.45 21,06 01:16:38.25
93 ANGELICCHIO GIUSEPPE M M3 17 ASD ONLYOFF DUE RUOTE 01:16:57.45 21,05 01:16:31.31
94 MAURO EMANUELE M ELMT 9 TEAM PASSION FAENTINA 01:17:02.95 21,03 01:16:41.75
95 ZACCARELLI GIUSEPPE M M3 18 TEAM PASSION FAENTINA 01:17:04.20 21,02 01:16:52.52
96 BONAVITA ILARIO M M5 7 SPACCO ASD 01:17:04.45 21,02 01:16:56.56
97 CAPACCI ADRIANO M M2 23 AS TARTANA BIKE 01:17:38.59 20,87 01:17:21.39
98 RINALDI ANDREA M ELMT 10 GRUPPO TNT 01:17:48.95 20,82 01:17:24.25
99 FASTUCA VITTORIO M ELMT 11 ACD ITALIA NUOVA 01:17:49.95 20,82 01:16:57.45
100 BERTI ANDREA M M1 17 ASCD VALLE DEL CONCA 01:17:55.04 20,79 01:17:09.09
101 SPURI ZAMPETTI STEFANO M M4 14 UISP TERRITORIALE 01:18:07.43 20,74 01:18:07.43
102 RAVAIOLI MARCO M ELMT 12 GRUPPO TNT 01:18:08.86 20,73 01:17:47.66
103 SARTI FILIPPO M 2S 8 ASD SAMBI TEAM 01:18:09.67 20,73 01:17:26.27
104 BISERNA BRUNO M M4 15 POLISPORTIVA SAN VITTORE - ALFIO TANI 01:18:11.09 20,72 01:17:48.48
105 POTENZA ALESSANDRO M M3 19 SPECIALISSIMA BIKE TEAM 01:18:14.47 20,71 01:17:57.57
106 MONTALTI MIRCO M M3 20 SCORPION BIKE MTB 01:18:17.97 20,69 01:17:51.27
107 GRILLI LUCA M 2S 9 ASDC VALLE DEL CONCA NORDIC WALKING 01:18:19.22 20,69 01:18:12.12
108 LOMBARDI NICOLO´ M ELMT 13 180 BPM 01:18:32.47 20,63 01:18:22.22
109 MAGRINI STEFANO M M6 4 TEAM PASSION FAENTINA 01:18:44.20 20,58 01:18:15.15
110 CAVIOLI DANIELE M M1 18 ASD LE SALINE NATURA E SPORT 01:18:44.62 20,58 01:18:23.23
111 LAMI FLAVIO M M6 5 SCORPION BIKE MTB 01:18:46.22 20,57 01:18:11.02
112 MENGHETTI PETER M JUN 2 POL. YOUNG LINE 01:18:51.72 20,55 01:18:01.01
113 PANCISI GABRIELE M M5 8 GRUPPO TNT 01:18:52.53 20,54 01:18:33.33
114 ANCARANI ALESSIO M M1 19 TEAM PASSION FAENTINA 01:18:53.14 20,54 01:18:43.43
115 BORRELLI VINCENZO M M1 20 ASD SAMBI TEAM 01:18:54.97 20,53 01:18:17.77
116 BECCI MORENO M M7 1 GRUPPO TNT 01:18:57.42 20,52 01:18:44.02
117 TORTOLANI UGO M 2S 10 POL. YOUNG LINE 01:18:58.97 20,51 01:18:50.27
118 ZANCHINI FABIO M 2S 11 TEAM PASSION FAENTINA 01:19:02.22 20,50 01:18:57.57
119 VENTURINI MIRKO M M2 24 TEAM PASSION FAENTINA 01:19:03.47 20,49 01:18:46.46
120 VISANI MIRIA F MW1 1 ASD OSTERIA 01:19:05.12 20,48 01:18:44.44
121 LOLLI STEFANO M M2 25 VERNIABIKE ASD 01:19:05.72 20,48 01:18:52.52
122 BANDINI ALEXANDER M M3 21 VITAMINA TEAM 01:19:06.14 20,48 01:19:06.14
123 AMADORI MICHELE M 2S 12 ASDC VALLE DEL CONCA NORDIC WALKING 01:19:13.04 20,45 01:18:49.49
124 POLI STEFANO M M6 6 ROMAGNA BIKE GRANDI EVENTI 01:19:23.40 20,41 01:19:14.14
125 SAPIGNI ALESSANDRO M M3 22 SCORPION BIKE MTB 01:19:25.47 20,40 01:18:55.27
126 GAVIANI FILIPPO M M1 21 BAD SKULL ASD 01:19:31.12 20,37 01:18:54.54
127 GOBBI STEFANO M M1 22 ASCD VALLE DEL CONCA 01:19:37.62 20,35 01:18:44.22
128 ZAFFERANI MICHELE M M2 26 SAN MARINO MTB TEAM 01:19:38.87 20,34 01:19:13.13
129 GAVANELLI LORENZO M 2S 13 POL. YOUNG LINE 01:19:40.87 20,33 01:19:17.27
130 MANTOVANI MICHELE M ELMT 14 ASD CICLO ESTENSE MESOLA 01:19:40.87 20,33 01:19:30.17
131 PREDIERI GIACOMO M M7 2 BAMBANA BIKE 01:19:46.17 20,31 01:19:33.33
132 SOVERA ALESSIO M M3 23 SALI IN BICI 01:19:48.72 20,30 01:19:24.12
133 BOSI FABIO M M2 27 SPECIALISSIMA TEAM BIKE 01:19:52.65 20,28 01:19:37.37
134 DALL´OSSO CARLO M M5 9 POL. YOUNG LINE 01:19:52.97 20,28 01:19:47.07
135 BUSSOLI PAOLO M M6 7 ASD ONLYOFF DUE RUOTE 01:20:00.17 20,25 01:19:27.27
136 BALDO RAFFAELE M 2S 14 TEAM PASSION FAENTINA 01:20:01.39 20,25 01:19:53.53
137 DE SIMONE ALESSANDRO M 2S 15 GOOD BIKE AS RONCOFREDDESE 01:20:03.22 20,24 01:19:30.30
138 PEDROSI CRISTIAN M 2S 16 ASD BLACK ROAD 01:20:06.22 20,22 01:19:37.37
139 PRATELLI DAVIDE M 2S 17 ASDC VALLE DEL CONCA NORDIC WALKING 01:20:09.31 20,21 01:19:31.21
140 CAVALLARI ALESSANDRO M M1 23 TEAM SPARROW 01:20:10.72 20,21 01:19:39.12
141 SASDELLI MICHELE M M3 24 BAMBANA BIKE 01:20:15.81 20,19 01:19:34.01
142 ZAGHINI MARZIO M 2S 18 SPACCO ASD 01:20:21.70 20,16 01:20:10.10
143 CASTELLUCCI STEFANO M 2S 19 180 BPM 01:20:29.22 20,13 01:20:20.20
144 BEST TOM RICHARD M M5 10 ASD ONLYOFF DUE RUOTE 01:20:30.84 20,12 01:19:52.74
145 BARBERINI EMANUELE M M3 25 ASD MEDINOX 01:20:32.67 20,12 01:19:49.49
146 TOZZI MATTIA M JUN 3 TEAM NOB JOLLYWEAR 01:20:33.47 20,11 01:20:29.29
147 PODESCHI ROBERTO M M4 16 SAN MARINO RACE TEAM 01:20:34.11 20,11 01:20:07.07
148 ALBERGHI FRANCESCO M M1 24 ASD DOROBIKE TEAM 01:20:34.93 20,11 01:19:46.53
149 COZZOLINO CLAUDIO M M3 26 ASD TEAM COMACO 01:20:36.22 20,10 01:20:16.16
150 PRATI MARCO M M4 17 ASD CESENA BIKE 01:20:36.93 20,10 01:20:00.53
151 FABBRI FABIO M M5 11 180 BPM 01:20:37.95 20,10 01:20:32.55
152 MASOTTI IURI M M1 25 TEAM PASSION FAENTINA 01:20:42.47 20,07 01:20:18.18
153 ZUCCA GIACOMO M M3 27 TEAM TORPEDO BIKE 01:20:44.65 20,07 01:19:58.45
154 CECCHI FRANCESCO M M2 28 SCORPION BIKE MTB 01:20:45.22 20,06 01:20:45.22
155 CARLI FABIO M ELMT 15 TEAM SPARROW 01:20:51.37 20,04 01:20:20.17
156 LEARDINI GABRIELE M ELMT 16 ASD SBUBBIKERS 01:20:52.17 20,03 01:20:02.02
157 VERNIA FABIO M M4 18 VERNIABIKE ASD 01:20:54.97 20,02 01:20:23.77
158 MIGANI DENIS M 2S 20 ASCD VALLE DEL CONCA 01:20:56.43 20,02 01:20:31.31
159 LASORELLA VINCENZO M M4 19 ASD ONLYOFF DUE RUOTE 01:20:58.97 20,01 01:20:24.87
160 FRESCHI ALESSANDRO M ELMT 17 GRUPPO TNT 01:20:59.72 20,00 01:20:16.52
161 BARAVELLI IVAN M ELMT 18 GRUPPO TNT 01:21:03.47 19,99 01:20:41.41
162 FENATI GIANLUCA M M4 20 BICI CASTEL DEL RIO ASD 01:21:05.22 19,98 01:20:51.51
163 CAVALLI ALVER M M3 28 ASD LE SALINE NATURA E SPORT 01:21:05.98 19,98 01:20:23.28
164 NALDINI FABIO M M1 26 180 BPM 01:21:08.42 19,97 01:20:22.22
165 CARDELLI GIANLUIGI M M4 21 ASD IMOLA BIKE 01:21:10.86 19,96 01:20:37.37
166 SCALA DAVID M M3 29 POLISPORTIVA SAN VITTORE 01:21:14.22 19,94 01:20:58.58
167 D´ANGELO SIMONE M ELMT 19 ASCD VALLE DEL CONCA 01:21:17.37 19,93 01:20:35.35
168 MORRI MIRCO M 2S 21 ASD LE SALINE NATURA E SPORT 01:21:18.47 19,93 01:20:37.27
169 QUADRELLI PAOLO M M6 8 SAN MARINO RACE TEAM 01:21:20.20 19,92 01:20:52.52
170 PIOGGIA LUCA M 2S 22 POL. YOUNG LINE 01:21:25.47 19,90 01:21:14.14
171 BRUNELLI ENRICO M M3 30 GRUPPO TNT 01:21:26.09 19,89 01:20:47.47
172 NANNI MIRKO M M3 31 VITAMINA TEAM 01:21:27.92 19,89 01:20:35.52
173 DAL PRATO MIRKO M M1 27 TEAM PASSION FAENTINA 01:21:29.47 19,88 01:21:02.02
174 TORRONI ANDREA M M1 28 GOOD BIKE AS RONCOFREDDESE 01:21:34.62 19,86 01:21:03.42
175 MAGNANI FABRIZIO M M2 29 CESENA TRIATHLON ASD 01:21:35.84 19,86 01:21:24.24
176 CAVINA GIAMBATTISTA M M5 12 ASD IMOLA BIKE 01:21:56.15 19,77 01:21:38.38
177 MARTINI ALESSANDRO M M3 32 ASD BIKE INNOVATION SQUADRA CORSE 01:22:07.22 19,73 01:22:07.22
178 ROVINELLI RICCARDO M 2S 23 SPACCO ASD 01:22:09.97 19,72 01:21:46.77
179 RUGGERI DAVIDE M M2 30 TEAM K-ONE ASD 01:22:10.58 19,72 01:21:27.18
180 NARDI MASSIMO M M4 22 180 BPM 01:22:11.39 19,71 01:22:11.39
181 BRIGANTI GIANNI M M5 13 180 BPM 01:22:12.73 19,71 01:21:46.46
182 RONCASSAGLIA GABRIELE M M4 23 BAMBANA BIKE 01:22:13.42 19,70 01:21:40.22
183 MAESTRI MATTEO M M1 29 ASD CICLO ESTENSE MESOLA 01:22:14.23 19,70 01:22:02.02
184 TAIBI FILIPPO M M1 30 ASD OTW RAVENNA 01:22:16.98 19,69 01:22:00.58
185 CHIARADIA TULLIO M 2S 24 180 BPM 01:22:21.95 19,67 01:21:45.05
186 FERRETTO LUCA M M1 31 TEAM K-ONE ASD 01:22:24.79 19,66 01:21:31.59
187 AGNOLETTI MARIO M 2S 25 UISP RAVENNA 01:22:25.42 19,66 01:21:44.22
188 ANTINORI MARCO M M3 33 SAN MARINO RACE TEAM 01:22:27.73 19,65 01:21:49.49
189 TASSI GIANLUCA M M4 24 TEAM K-ONE ASD 01:22:30.23 19,64 01:21:38.38
190 MESSINA GIUSEPPE M M6 9 BAMBANA BIKE 01:22:31.98 19,63 01:21:51.08
191 MINIELLO LEO M 2S 26 TEAM BIKE COCIF.COM ASD 01:22:34.95 19,62 01:22:04.75
192 MAZZINI MARCO M 2S 27 BAMBANA BIKE 01:22:38.73 19,60 01:22:14.14
193 GREGORI DANIELE M M3 34 COMERO BIKE 01:22:39.23 19,60 01:22:39.23
194 TARABUSI GIULIANO M M4 25 TEAM K-ONE ASD 01:22:42.87 19,59 01:22:01.87
195 SILVANI ANDREA M M1 32 COMERO BIKE 01:22:43.68 19,58 01:22:12.12
196 FABIANI FABIO M 2S 28 SPACCO ASD 01:22:44.98 19,58 01:22:22.78
197 MONTIRONI GIANCARLO M M7 3 ASD SAMBI TEAM 01:22:45.73 19,58 01:22:41.03
198 CIGNANI ROMANO M M3 35 180 BPM 01:22:52.42 19,55 01:22:15.15
199 CAVALETTI BRUNO M M3 36 GS SPORTISSIMO TOP LEVEL 01:23:26.95 19,42 01:22:38.75
200 CAMPANINI GIANNI M M6 10 PEDALE CESENATE CICLI NERI 01:23:29.23 19,41 01:23:15.15
201 PERINI DAVID M M4 26 ASD LE SALINE NATURA E SPORT 01:23:29.61 19,41 01:22:47.47
202 MEDRI FRANCESCO M M5 14 BARACCA LUGO CORSA MTB 01:23:29.98 19,41 01:23:22.78
203 FREGNANI SAURO M M3 37 BD FAST 01:23:30.61 19,40 01:23:30.61
204 SUCCI ALESSANDRO M ELMT 20 ASD LE SALINE NATURA E SPORT 01:23:30.81 19,40 01:22:39.71
205 TAMPELLINI MATTEO M 2S 29 180 BPM 01:23:30.98 19,40 01:22:54.48
206 BURZACCA ANDREA M M6 11 GS TORPADO SURFING SHOP SPORT PROMOTION 01:23:32.23 19,39 01:23:04.04
207 GIAMPRETI PAOLA F MW1 2 GRUPPO TNT 01:23:33.65 19,39 01:23:10.10
208 FERRARI ENRICO M M1 33 SPACCO ASD 01:23:34.08 19,39 01:23:20.20
209 CANDI DAVIDE M M3 38 TEAM K-ONE ASD 01:23:43.23 19,35 01:22:54.54
210 QUARANTINI DAVIDE M M4 27 ASD IMOLA BIKE 01:23:51.73 19,32 01:23:22.13
211 CIMINIELLO FABIO M M1 34 TEAM PASSION FAENTINA 01:23:53.97 19,31 01:23:32.07
212 RINALDINI PAOLO M M4 28 ASD POLISPORTIVA SAMMAURESE NOB 01:23:57.23 19,30 01:23:34.34
213 PERUGINI DANIELE M M6 12 AS TEAM - FORLI´ 01:24:02.90 19,28 01:23:53.50
214 CECCHINI ALFIO M M5 15 ASD TEAM BIKE VALCONCA 01:24:13.23 19,24 01:24:13.23
215 BISSIONI LORENZO M M7 4 TEAM TORPEDO BIKE 01:24:16.23 19,22 01:24:04.13
216 ORAZI MASSIMILIANO M M4 29 TEAM PASSION FAENTINA 01:24:19.97 19,21 01:24:19.97
217 CERONI MAURIZIO M M6 13 ASD IMOLA BIKE 01:24:21.18 19,21 01:24:01.01
218 DE CHIARA SALVATORE M M4 30 CICLI SOPRANI 01:24:26.47 19,19 01:23:46.17
219 PISELLI ALEX M M1 35 SAN MARINO RACE TEAM 01:24:36.01 19,15 01:23:57.57
220 NANNETTI ALBERTO M 2S 30 180 BPM 01:24:39.98 19,14 01:24:04.58
221 VALLICELLI MIRKO M 2S 31 TEAM PASSION FAENTINA 01:24:42.48 19,13 01:23:56.08
222 MUCCIOLI MIRKO M M2 31 SAN MARINO MTB TEAM 01:24:54.90 19,08 01:24:00.00
223 BONAIUTI FABIO M M3 39 MTB LA RUPE 01:25:02.62 19,05 01:25:02.62
224 PAVANI BARBARA F MW2 1 ASD IMOLA BIKE 01:25:07.09 19,03 01:24:57.57
225 PELLEGRINO PIERPAOLO M M2 32 ASDC VALLE DEL CONCA NORDIC WALKING 01:25:07.11 19,03 01:24:59.59
226 BARBERINI STEFANO M 2S 32 ASD MEDINOX 01:25:13.18 19,01 01:24:28.28
227 BRIGLIADORI SANDRO M M6 14 SCORPION BIKE MTB 01:25:18.23 18,99 01:24:31.31
228 AMADUCCI ROBERTO M M6 15 180 BPM 01:25:22.48 18,98 01:24:58.58
229 EUSEBI LORENZO M ELMT 21 ASD TEAM BIKE VALCONCA 01:25:25.17 18,97 01:25:19.19
230 MATTEI DENIS M M3 40 SAN MARINO MTB TEAM 01:25:27.61 18,96 01:25:21.21
231 OTTAVIANI ROBERTO M M6 16 ASD OLIVIERO 01:25:31.23 18,94 01:24:59.59
232 SAMBATI PAOLO M M3 41 VERNIABIKE ASD 01:25:38.98 18,92 01:24:56.08
233 SUCCI MATTEO M JUN 4 ASD LE SALINE NATURA E SPORT 01:25:41.48 18,91 01:25:36.08
234 ANCARANI GIULIO M M6 17 180 BPM 01:25:43.98 18,90 01:25:09.98
235 GALLINUCCI ALESSANDRO M ELMT 22 VENTURI ADVENTURE TEAM 01:25:51.17 18,87 01:25:02.02
236 MARANI RICCARDO M M2 33 TEAM PASSION FAENTINA 01:25:55.23 18,86 01:25:23.23
237 ARGINI FABRIZIO M M5 16 FRM FACTORY RACING TEAM ASD 01:25:56.86 18,85 01:25:56.86
238 MINARDI MARCO M M5 17 TEAM PASSION FAENTINA 01:25:58.08 18,84 01:25:58.08
239 TONELLI ROBERTO M M7 5 COMERO BIKE 01:26:16.75 18,78 01:25:55.35
240 BARACANI FABRIZIO M M4 31 ASD SENIOBIKE 01:26:17.98 18,78 01:25:23.38
241 BABINI STEFANO M M2 34 VITAMINA TEAM 01:26:21.00 18,76 01:25:32.32
242 MANTOVANI LUCA M M5 18 BAMBANA BIKE 01:26:28.25 18,74 01:25:45.45
243 FABBRI DOMENICO M M6 18 ROMAGNA BIKE GRANDI EVENTI 01:26:31.50 18,72 01:26:31.50
244 SPINELLI SIMONLUCA M M1 36 BAD SKULL ASD 01:26:34.75 18,71 01:25:43.43
245 STRIOLO DANIELE M M2 35 GS TORPADO SURFING SHOP SPORT PROMOTION 01:26:41.37 18,69 01:26:41.37
246 GASTALDI ELISA F MW1 3 TEAM PASSION FAENTINA 01:26:41.54 18,69 01:26:34.04
247 EVANGELISTI MATTIA M ELMT 23 GOOD BIKE AS RONCOFREDDESE 01:26:51.70 18,65 01:26:02.02
248 LIVERANI ALESSANDRO M M4 32 TEAM PASSION FAENTINA 01:26:57.39 18,63 01:26:29.29
249 LUBRANO GIORGIO MASSIMO M M2 36 TEAM SPARROW 01:26:57.83 18,63 01:26:57.83
250 RUGGIERO BRUNO M M6 19 TEAM K-ONE ASD 01:27:03.89 18,61 01:26:28.49
251 BRIZZI GIULIANO M M4 33 ASD VALMARACING TEAM 01:27:16.48 18,56 01:27:16.48
252 GORRIERI RICCARDO M M4 34 ASD VALMARACING TEAM 01:27:17.92 18,56 01:26:25.52
253 CECCHI IVAN M M4 35 SCORPION BIKE MTB 01:27:19.25 18,55 01:27:19.25
254 MACINA PIER MARINO M M5 19 SAN MARINO RACE TEAM 01:27:23.50 18,54 01:26:43.40
255 CIMINI MARCO M 2S 33 ASD TEAM BIKE VALCONCA 01:27:28.25 18,52 01:26:58.05
256 GATTA ALESSANDRO M ELMT 24 GRUPPO TNT 01:27:32.50 18,51 01:26:45.30
257 GUERRINI EMANUELE M M2 37 TEAM ZANETTI ASD 01:27:34.36 18,50 01:27:01.01
258 SEMIANCHUK HEORHI M ELMT 25 ASD SAMBI TEAM 01:27:35.25 18,50 01:27:23.23
259 MARONI MICHELE M 2S 34 GOOD BIKE AS RONCOFREDDESE 01:27:35.59 18,50 01:27:35.59
260 BELLAGAMBA MATTIA M 2S 35 LEPRI DI ROMAGNA 01:27:40.25 18,48 01:26:45.45
261 CESARI ERNESTINO M M7 6 ASD GREEN DEVILS 01:27:40.45 18,48 01:27:29.29
262 CHIARUCCI FABRIZIO M M6 20 ASD SAMBI TEAM 01:27:45.00 18,46 01:27:41.41
263 SCHIETROMA ALESSIO M M1 37 S.C.CERETOLESE 1969 01:27:47.97 18,45 01:26:54.57
264 GAMBELLA DAVID M M4 36 ASD BIKERS RACING TEAM 01:27:48.17 18,45 01:26:53.53
265 CONTI FABIO M ELMT 26 AS TARTANA BIKE 01:27:49.39 18,45 01:27:49.39
266 VISCOMI GIOVANNI M ELMT 27 MTB LA RUPE 01:27:50.50 18,44 01:27:11.10
267 COSTA LUCA M JUN 5 PROBIKERS 01:27:54.00 18,43 01:27:48.48
268 FERRINI MATTIA M JUN 6 SPACCO ASD 01:27:55.48 18,43 01:27:40.40
269 ZACCARIA DAVIDE M M2 38 VERNIABIKE ASD 01:28:09.25 18,38 01:27:41.41
270 BELEFFI STEFANO M M5 20 ASD ORO BIANCO PIRATA TEAM CERVIA 01:28:15.59 18,36 01:28:15.59
271 ARLOTTI MAURIZIO M M5 21 TEAM TORPEDO BIKE 01:28:24.50 18,33 01:27:46.20
272 MONDUZZI MORENO M M5 22 ASD SACMI 01:28:27.98 18,32 01:27:48.58
273 NATALI ADRIANO M M5 23 ROMAGNA BIKE GRANDI EVENTI 01:28:33.67 18,29 01:28:33.67
274 BACCHILEGA IVAN M ELMT 28 ASD LEONARDI RACING TEAM 01:28:44.00 18,26 01:28:44.00
275 BALDUCCI FABIO M M3 42 SAN MARINO MTB TEAM 01:29:02.73 18,20 01:29:02.73
276 RIGHETTI PIETRO M M6 21 BAMBANA BIKE 01:29:03.12 18,19 01:28:18.18
277 GRANDI SAMUELE M M1 38 BICI CASTEL DEL RIO ASD 01:29:11.45 18,16 01:28:22.22
278 MAINARDI ROBERTO M M6 22 ASD LE SALINE NATURA E SPORT 01:29:14.00 18,15 01:29:09.09
279 DAOLIO LUCA M M5 24 NEW MOTOR BIKE 01:29:15.25 18,15 01:28:44.44
280 SIROTTI MATTEO M 2S 36 VENTURI ADVENTURE TEAM 01:29:26.68 18,11 01:28:45.28
281 BARTOLINI VALERIA F MW2 2 TEAM TORPEDO BIKE 01:29:27.70 18,11 01:28:50.50
282 BARTOLONI GIANNI M M5 25 SAN MARINO MTB TEAM 01:29:33.75 18,09 01:29:07.15
283 GIACOMAZZI MATTEO M M3 43 DNA BIKE 01:29:34.61 18,09 01:29:34.61
284 CASADIO CLAUDIO M M4 37 TEAM PASSION FAENTINA 01:29:36.00 18,08 01:29:17.17
285 RAVAIOLI LORENZO M M4 38 ASD COTEKINO OFF ROAD 01:29:45.98 18,05 01:29:00.28
286 LOMBARDI TIZIANO M M7 7 GRUPPO TNT 01:29:55.25 18,02 01:29:27.27
287 NERI FABIO M M5 26 MARRADI BIKE 01:30:05.01 17,98 01:29:38.38
288 PEDUTO GIOVANNI M M1 39 ASD SALINBICI BIKE TEAM RUOTE IN SCIA 01:30:10.36 17,97 01:29:53.53
289 VALBONESI EMANUELE M 2S 37 180 BPM 01:30:19.01 17,94 01:29:42.42
290 AMADASI ENRICO M M7 8 BAMBANA BIKE 01:30:20.92 17,93 01:29:35.72
291 BERTONCINI PAOLO M M7 9 CICLI CENTER MODENA ASD 01:30:22.01 17,93 01:29:42.42
292 MATARESE GIOVANNI M ELMT 29 AS TARTANA BIKE 01:30:22.14 17,93 01:30:22.14
293 ZANIBONI CARLO M M4 39 MTB LA RUPE 01:30:24.17 17,92 01:30:24.17
294 FERRI MAURO M M7 10 BAMBANA BIKE 01:30:25.18 17,92 01:30:05.05
295 RIMONDI ROBERTO M M5 27 MTB LA RUPE 01:30:28.23 17,91 01:30:28.23
296 CESARINI FRANCESCO M M4 40 ASD SBUBBIKERS 01:30:34.51 17,89 01:29:43.43
297 BOSTRENGHI MARCO M M2 39 GS POLISPORTIVA SIDERMEC FLLI VITALI SEZ CICL 01:30:38.18 17,87 01:30:38.18
298 SAMORI´ ENRICO M ELMT 30 TEAM PASSION FAENTINA 01:30:40.62 17,87 01:30:19.19
299 CROCETTI ENRICO M M5 28 TEAM K-ONE ASD 01:30:41.43 17,86 01:30:18.18
300 GIORGI LUIGI M M4 41 ASD LE SALINE NATURA E SPORT 01:30:46.31 17,85 01:29:57.57
301 PONZO FEDERICO M ELMT 31 VERNIABIKE ASD 01:30:53.42 17,83 01:30:15.15
302 VERIDIANI ALESSANDRO M M4 42 ASD OTW RAVENNA 01:30:58.26 17,81 01:30:40.40
303 COLOZZO VINCENZO M M2 40 180 BPM 01:30:59.51 17,81 01:30:50.50
304 TRONI MASSIMO M M4 43 ASD LE SALINE NATURA E SPORT 01:31:01.75 17,80 01:30:18.05
305 MENGHETTI FABIO M M4 44 ASD BIKE INNOVATION SQUADRA CORSE 01:31:07.51 17,78 01:31:07.51
306 DIANATI DAVIDE M M3 44 SPEED BIKE 01:31:14.75 17,76 01:30:22.35
307 BOCCHINI FRANCO M M6 23 ASD CESENA BIKE 01:31:18.20 17,74 01:31:18.20
308 CUCCHI GIANLUCA M M3 45 PROBIKERS 01:31:19.62 17,74 01:30:27.27
309 MORDENTI MIRKO M M3 46 VITAMINA TEAM 01:31:50.90 17,64 01:30:59.20
310 MURATORI GIAMPAOLO M M4 45 GRUPPO TNT 01:31:55.51 17,62 01:31:11.11
311 MACCHEROZZI MARTA F MW2 3 GRUPPO TNT 01:32:00.51 17,61 01:31:33.31
312 VANNI ANGELO M M5 29 SCORPION BIKE MTB 01:32:01.87 17,61 01:32:01.87
313 SCHWIBBERT ANDREA M M1 40 ASD CESENA BIKE 01:32:05.51 17,59 01:32:05.51
314 MARTINI STEFANO M M2 41 CICLISTICA MEDICINA 1912 01:32:08.17 17,58 01:31:21.21
315 CANALINI ALBERTO M M1 41 BICI PER TUTTI 01:32:40.67 17,48 01:32:08.08
316 EUSEBI MAURO M M6 24 ASD TEAM BIKE VALCONCA 01:32:50.42 17,45 01:32:08.02
317 PIOLANTI PIER DOMENICO M 2S 38 180 BPM 01:33:01.76 17,42 01:33:01.76
318 TERZIARI ALBERTO M M5 30 POL. YOUNG LINE 01:33:03.23 17,41 01:32:11.11
319 GUALANDI STEFANO M M5 31 TEAM K-ONE ASD 01:33:04.26 17,41 01:33:04.26
320 BUNICCI ROBERTO M M4 46 TEAM PASSION FAENTINA 01:33:06.26 17,40 01:32:22.22
321 COLOMBO ROBERTO M M5 32 BARACCA LUGO CORSA MTB 01:33:12.98 17,38 01:33:04.78
322 ACCIAI MAURIZIO M M6 25 GRUPPO TNT 01:33:15.40 17,37 01:33:02.02
323 BOVI ALESSIO M M2 42 ASD VALMARACING TEAM 01:33:18.25 17,36 01:33:11.11
324 LORUSSO MARCO M M1 42 180 BPM 01:33:23.73 17,35 01:32:45.45
325 SAMPAOLI GIMMI M M2 43 COMERO BIKE 01:33:24.75 17,34 01:32:49.75
326 GARAVINI DAVIDE M M5 33 180 BPM 01:33:29.01 17,33 01:33:29.01
327 BASSETTI MASSIMO M M6 26 180 BPM 01:33:31.51 17,32 01:33:13.13
328 CAMASSI FABRIZIO M M4 47 VERNIABIKE ASD 01:33:45.87 17,28 01:33:45.87
329 BERARDUCCI DANIELE M M5 34 ASD LE SALINE NATURA E SPORT 01:33:47.50 17,27 01:33:01.01
330 ROSETTI FILIPPO M ELMT 32 180 BPM 01:33:55.42 17,25 01:33:55.42
331 CAVINA ORIANO M M7 11 TEAM K-ONE ASD 01:33:58.78 17,24 01:33:58.78
332 MANZONI RICCARDO M ELMT 33 ASD SHARK RACING TEAM 01:33:59.68 17,24 01:33:59.68
333 MAZZONI LORENZO M ELMT 34 DUE RUOTE FORLI RIDEFORFUN! 01:34:02.12 17,23 01:34:02.12
334 GIACON STEFANO M M5 35 BAMBANA BIKE 01:34:18.17 17,18 01:34:18.17
335 TASSINARI ALBERTO M M1 43 ASD OTW RAVENNA 01:34:18.37 17,18 01:34:00.17
336 MUCCINI FEDERICO M M4 48 ASD LE SALINE NATURA E SPORT 01:34:19.39 17,18 01:33:38.19
337 DADI EMILIANO M M4 49 SPECIALISSIMA TEAM BIKE 01:34:26.03 17,15 01:34:07.07
338 MAVILLA PAOLO M M6 27 TEAM PASSION FAENTINA 01:34:29.14 17,15 01:33:58.58
339 MAZZOLI STEFANO M M4 50 ASD LE SALINE NATURA E SPORT 01:34:32.18 17,14 01:33:47.47
340 MARTINI MASSIMO M M3 47 TEAM SPARROW 01:34:37.78 17,12 01:34:37.78
341 GUARDIGLI CHIARA F MW2 4 ASD TEAM ENDURANCE 01:34:48.78 17,09 01:34:35.38
342 MANUZZI MIRCO M ELMT 35 GOOD BIKE AS RONCOFREDDESE 01:34:49.65 17,09 01:34:19.45
343 CAMPEDELLI ROBERTO M M4 51 ASD TEAM ENDURANCE 01:34:53.28 17,07 01:34:40.40
344 MAESTRI CRISTIAN M M1 44 GOOD BIKE AS RONCOFREDDESE 01:34:53.92 17,07 01:34:53.92
345 LESSI GIANNI M M3 48 TEAM BIKE COCIF.COM ASD 01:35:05.03 17,04 01:34:12.12
346 COTTI MARCO M ELMT 36 SDC G.BONZAGNI 01:35:07.73 17,03 01:35:07.73
347 CHILLO TANIA F MW2 5 ASD ONLYOFF DUE RUOTE 01:35:13.01 17,01 01:34:37.37
348 VICINI MICHELE M M1 45 GROUPE MONTEVITO CICLISMO 01:35:18.03 17,00 01:34:43.43
349 ACCORSI MATTIA M M1 46 MTB LA RUPE 01:35:18.09 17,00 01:35:18.09
350 COSTANTINO MARCO M M3 49 BAMBANA BIKE 01:35:25.40 16,98 01:34:50.50
351 CORADUCCI ALBERTO M M6 28 TEAM K-ONE ASD 01:35:32.51 16,96 01:35:32.51
352 CONSANI MATTEO M ELMT 37 GS BULGARNO´ BIKE 2008 01:35:45.51 16,92 01:35:45.51
353 MAESTRI ENRICO M M4 52 ASD CICLO ESTENSE MESOLA 01:36:19.04 16,82 01:35:52.52
354 MORDENTI FERNANDO M M6 29 ASD TEAM COMACO 01:36:42.18 16,75 01:35:52.52
355 MARIANI THOMAS M M2 44 GOOD BIKE AS RONCOFREDDESE 01:36:43.00 16,75 01:36:43.00
356 FATTINI MASSIMILIANO M 2S 39 TEAM BIKE COCIF.COM ASD 01:37:10.42 16,67 01:36:20.02
357 CECCOLI TONINO M M6 30 SAN MARINO RACE TEAM 01:37:15.03 16,66 01:36:34.34
358 CORAZZA PARIDE M M4 53 ASD OTW RAVENNA 01:37:17.93 16,65 01:37:17.93
359 LOVISOLO ANDREA M M1 47 S.C.CERETOLESE 1969 01:37:50.53 16,56 01:37:50.53
360 LEONELLI CARLO M M4 54 BAMBANA BIKE 01:38:02.01 16,52 01:38:02.01
361 CALBI PAOLA F MW2 6 ASD CESENA BIKE 01:38:03.03 16,52 01:38:03.03
362 BULDRINI LAMBERTO M M5 36 ASD LE SALINE NATURA E SPORT 01:38:21.73 16,47 01:37:35.03
363 PICCHI STEFANO M M5 37 ASD LE SALINE NATURA E SPORT 01:38:25.29 16,46 01:37:41.41
364 MAGALOTTI GIANLUCA M M4 55 SAN MARINO MTB TEAM 01:38:25.78 16,46 01:37:58.38
365 CAVULLA ANNARITA F MW2 7 ASD IMOLA BIKE 01:38:28.54 16,45 01:38:09.34
366 MARTINETTI FORTUNATO M M4 56 COMERO BIKE 01:38:29.64 16,45 01:38:29.64
367 FAGGIOLINI CRISTIAN M 2S 40 AS TARTANA BIKE 01:38:35.73 16,43 01:38:35.73
368 CAPRA LUCIA F MW2 8 TEAM PASSION FAENTINA 01:38:36.75 16,43 01:38:03.03
369 BERTOCCHI MASSIMO M M4 57 TEAM K-ONE ASD 01:38:37.76 16,43 01:38:37.76
370 FABBRICA ANDREA M M1 48 SPACCO ASD 01:38:45.28 16,41 01:38:45.28
371 CHIOSSONE CRISTIAN M M1 49 TEAM K-ONE ASD 01:38:57.67 16,37 01:38:57.67
372 MORIGI MATTEO M M1 50 TEAM TORPEDO BIKE 01:38:57.79 16,37 01:38:17.69
373 RAMBELLI ANDREA M M4 58 UISP BOLOGNA 01:39:00.29 16,36 01:39:00.29
374 GIULIANELLI MARIO M M7 12 TEAM MONDOBICI TECNOPLAST 01:39:05.79 16,35 01:39:05.79
375 PERUZZI FRANCESCO M M1 51 ASD CESENA BIKE 01:39:12.29 16,33 01:39:12.29
376 CINTI GIACOMO M JUN 7 ASD SAMBI TEAM 01:39:14.79 16,33 01:38:55.59
377 DI LIETO ANTONIO M M3 50 ASD LE SALINE NATURA E SPORT 01:39:27.93 16,29 01:39:27.93
378 TOSCHI BENEDETTA F MW1 4 POL. YOUNG LINE 01:39:30.98 16,28 01:39:18.88
379 ZANCHINI LORIS M M5 38 ASD TEAM COMACO 01:39:35.79 16,27 01:38:54.09
380 LANZONI LUCA M M4 59 ASD BIKE INNOVATION SQUADRA CORSE 01:39:37.48 16,26 01:39:37.48
381 CINTI FRANCO M M6 31 ASD SAMBI TEAM 01:39:41.29 16,25 01:39:24.09
382 GAMBERONI ANDREA M ELMT 38 TEAM K-ONE ASD 01:40:05.53 16,19 01:39:10.13
383 SALI FABIO M M5 39 VITAMINA TEAM 01:40:06.53 16,18 01:40:06.53
384 GUERRINI LUCA M M1 52 COMERO BIKE 01:40:11.29 16,17 01:39:38.38
385 CARATI STEFANO M M4 60 TEAM K-ONE ASD 01:40:16.54 16,16 01:40:16.54
386 BELLUZZI DANIELE M M6 32 NOT ONLY BIKE 01:40:28.48 16,12 01:40:28.48
387 SANTAGATA ANDREA M M4 61 VERNIABIKE ASD 01:40:32.12 16,11 01:40:32.12
388 CIMINI LUCIANO M M7 13 ASD TEAM BIKE VALCONCA 01:40:33.95 16,11 01:40:03.55
389 TACCONI GILBERTO M M4 62 TEAM K-ONE ASD 01:40:39.43 16,10 01:40:39.43
390 ARGIOLAS ALBERTO M M6 33 BAMBANA BIKE 01:40:41.26 16,09 01:40:41.26
391 CREMONINI GIANLUCA M M4 63 BUNNY HOP CYCLING TEAM ASD 01:40:55.48 16,05 01:40:55.48
392 GOLFERA FABRIZIO M M6 34 TEAM PASSION FAENTINA 01:41:03.54 16,03 01:40:15.24
393 BALDININI DANIELA F MW2 9 ASD POLISPORTIVA SAMMAURESE NOB 01:41:16.00 16,00 01:41:01.01
394 SELVA FEDERICO M 2S 41 SAN MARINO MTB TEAM 01:41:47.08 15,92 01:41:22.22
395 BERTOLAZZI MATTEO M ALL 1 ASD BIKE INNOVATION SQUADRA CORSE 01:42:04.31 15,87 01:42:04.31
396 TORSANI MAURIZIO M M6 35 ASD LE SALINE NATURA E SPORT 01:42:13.89 15,85 01:41:25.79
397 PAPETTI FRANCESCO M M7 14 ASD SAMBI TEAM 01:42:29.93 15,81 01:42:14.53
398 CIMINIELLO CHRISTIAN M ELMT 39 ASD SAMBI TEAM 01:42:36.43 15,79 01:42:17.03
399 TOSI WIDMER M M7 15 SPACCO ASD 01:42:59.59 15,73 01:42:59.59
400 CINI FRANCESCO M M3 51 ASD OTW RAVENNA 01:43:55.25 15,59 01:43:09.09
401 ZAPPATA DOMENICO M M1 53 TEAM SPARROW 01:44:05.31 15,56 01:44:05.31
402 FILIPPUCCI GUSTAVO M M5 40 BAMBANA BIKE 01:44:24.29 15,52 01:43:41.41
403 GRIECO ALEN M M1 54 TEAM TORPEDO BIKE 01:44:49.81 15,46 01:44:49.81
404 RAVAIOLI GIANCARLO M M7 16 GRUPPO TNT 01:45:16.56 15,39 01:45:16.56
405 GRANDI ENRICO M M3 52 TEAM MONDOBICI TECNOPLAST 01:45:52.04 15,30 01:45:00.00
406 GALLI ANDREA M M2 45 ASD LE SALINE NATURA E SPORT 01:46:20.48 15,24 01:46:20.48
407 FOSSI ENRICO M M1 55 ASD TEAM ENDURANCE 01:46:21.08 15,23 01:46:21.08
408 GAGLIANO CLARA F MW2 10 BAMBANA BIKE 01:46:31.04 15,21 01:46:09.09
409 MARCHIONNO MARCO M M3 53 ASD COTEKINO OFF ROAD 01:46:32.87 15,21 01:46:32.87
410 BERNAGOZZI MARCO M M4 64 BAMBANA BIKE 01:46:37.75 15,19 01:46:37.75
411 BELLAGAMBA MICHELE M M1 56 LEPRI DI ROMAGNA 01:46:39.37 15,19 01:46:39.37
412 DOS SANTOS FABIO M M1 57 ASD TEAM COMACO 01:46:54.33 15,15 01:46:18.18
413 BERNI DAVIDE M M3 54 VITAMINA TEAM 01:47:27.08 15,08 01:46:32.32
414 PERUZZI LORIS M M5 41 ASD CESENA BIKE 01:47:46.08 15,03 01:47:46.08
415 PAPETTI MIRKO M ELMT 40 ASD SAMBI TEAM 01:48:06.08 14,99 01:47:53.53
416 BETTI GIANLUCA M M2 46 TEAM K-ONE ASD 01:48:29.83 14,93 01:48:29.83
417 POMA ANDREA M M3 55 TEAM K-ONE ASD 01:48:37.39 14,91 01:48:37.39
418 VIROLI ANTONIO M M7 17 180 BPM 01:48:44.50 14,90 01:48:14.30
419 MAGAROLI DEVIS M M3 56 BAMBANA BIKE 01:50:03.51 14,72 01:50:03.51
420 BACCI EZIO M M4 65 A.K.S. ASD 01:51:16.23 14,56 01:51:16.23
421 BALDISSERRI PIETRO M M6 36 LEPRI DI ROMAGNA 01:51:20.29 14,55 01:51:20.29
422 SILVESTRI LORIS M M6 37 GS CICLI MATTEONI BIANCHI 01:51:20.84 14,55 01:51:20.84
423 SANGIORGI ANDREA M M1 58 ASD OTW RAVENNA 01:51:31.26 14,53 01:51:11.11
424 PAGANELLI KATIUSCIA F MW2 11 TEAM BIKE COCIF.COM ASD 01:51:48.33 14,49 01:51:48.33
425 FABBRI DAVIDE M M3 57 ASD SAMBI TEAM 01:51:50.56 14,49 01:51:50.56
426 DALL´AGLIO IVAN M M1 59 BICI CASTEL DEL RIO ASD 01:52:06.20 14,45 01:52:06.20
427 ZOFFOLI ALICE F MW2 12 ASD CESENA BIKE 01:52:33.83 14,39 01:52:33.83
428 MORGAGNI LUCIANO M M7 18 ASD BORELLO COSMEA PROFUMI 01:52:47.43 14,36 01:51:52.52
429 MIGANI MANUEL M M2 47 ASD H3O RACE TEAM 01:53:17.29 14,30 01:52:43.29
430 CORTESI CHRISTIAN M ELMT 41 SC ALFONSINE 01:54:29.28 14,15 01:54:29.28
431 CAVAZZA DAVIDE M M3 58 BUNNY HOP CYCLING TEAM ASD 01:55:18.76 14,05 01:55:18.76
432 CHIOCCIOLINI DANIELA F MW2 13 180 BPM 01:57:30.79 13,79 01:57:03.09
433 BIANCHI ROBERTO M M4 66 BAMBANA BIKE 01:57:54.87 13,74 01:57:08.07
434 GNUDI NORIS M M6 38 TEAM BIKE 2000 ASD 01:58:10.81 13,71 01:58:10.81
435 PELLEGRINI MARCO M M6 39 BAMBANA BIKE 01:59:53.18 13,51 01:59:06.06
436 GIAINIS GIUSEPPE M M1 60 SPEED BIKE 02:00:10.87 13,48 02:00:10.87
437 FOGLI GIULIANO M M1 61 TEAM SPARROW 02:00:54.12 13,40 02:00:54.12
438 CORTINI DONATELLA F MW2 14 TEAM PASSION FAENTINA 02:01:14.04 13,36 02:00:23.23
439 CALVANO DAVIDE M M2 48 CICLI NERI TEAM 02:01:15.04 13,36 02:01:15.04
440 FREDELLA MASSIMILIANO M M2 49 SPACCO ASD 02:09:33.73 12,50 02:08:54.53
441 PARASSIANI RICCARDO M M1 62 LEPRI DI ROMAGNA 02:10:46.23 12,39 02:10:46.23
442 SCARCIGLIA STEFANO M M3 59 DEKA RIDERS 02:11:01.42 12,36 02:11:01.42
443 BILLI ROVERI BEATRICE F MW1 5 TEAM K-ONE ASD 02:22:55.22 11,34 02:22:55.22
444 FABBRI MAURO M M3 60 TEAM PASSION FAENTINA 02:28:16.48 10,93 02:28:16.48
DNF RICCI LUCA M M2 - MTB LA RUPE - - -

CORTO - 15.0 Km

Pos Atleta Sesso Cat PosC Team Tempo Media RTime
1 MAESTRI MASSIMO M ALL 1 TEAM MBM ASD CICLISMO 01:18:10.95 11,51 01:18:10.95
2 TACCONI SIMONE M ALL 2 TEAM K-ONE ASD 01:21:30.15 11,04 01:21:30.15
3 BELLUCCI ANDREA M ALL 3 MTB TURBOLENTI 01:28:25.75 10,18 01:28:25.75
4 TOZZI ALEX M ES 1 ASCD VALLE DEL CONCA 01:30:38.61 9,93 01:30:38.61
5 MONTI MATTEO M ES 2 ASD LE SALINE NATURA E SPORT 02:02:16.79 7,36 02:02:16.79
6 VALENTINI EMANUELE M ES 3 ASCD VALLE DEL CONCA 02:06:30.09 7,11 02:06:30.09
7 RICCI RICCARDO M ES 4 SPACCO ASD 02:20:53.58 6,39 02:20:53.58